Time;durP1;ratioP1;P1;durP2;ratioP2;P2;SDS_P1;SDS_P2;PMS_P1;PMS_P2;Temp;Humidity;BMP_temperature;BMP_pressure;BME280_temperature;BME280_humidity;BME280_pressure;Samples;Min_cycle;Max_cycle;Signal;HPM_P1;HPM_P2
2021/05/30 00:01:54;;;;;;;;;;;;;;;21.18;41.93;99534.38;5089534;28;20006;-51
2021/05/30 00:04:20;;;;;;;;;;;;;;;21.30;41.52;99537.53;5088694;28;19916;-54
2021/05/30 00:06:45;;;;;;;;;;;;;;;21.11;40.89;99536.56;5088902;28;20026;-47
2021/05/30 00:09:10;;;;;;;;;;;;;;;21.11;40.59;99536.56;5088969;28;20368;-51
2021/05/30 00:11:36;;;;;;;;;;;;;;;21.20;39.85;99534.91;5089079;28;19912;-53
2021/05/30 00:14:04;;;;;;;;;;;;;;;21.44;39.66;99526.97;5087841;28;19969;-52
2021/05/30 00:16:30;;;;;;;;;;;;;;;21.32;41.03;99532.66;5088804;28;19969;-52
2021/05/30 00:18:55;;;;;;;;;;;;;;;21.18;40.20;99526.25;5088609;28;19920;-50
2021/05/30 00:21:21;;;;;;;;;;;;;;;21.23;39.93;99524.34;5088740;28;19974;-50
2021/05/30 00:23:46;;;;;;;;;;;;;;;20.92;40.03;99523.66;5105439;28;20007;-50
2021/05/30 00:26:11;;;;;;;;;;;;;;;21.17;40.77;99525.47;5107029;28;19924;-52
2021/05/30 00:28:37;;;;;;;;;;;;;;;21.17;40.22;99517.34;5109282;28;19955;-52
2021/05/30 00:31:02;;;;;;;;;;;;;;;21.31;40.36;99527.56;5109763;28;19977;-53
2021/05/30 00:33:27;;;;;;;;;;;;;;;21.57;39.03;99515.50;5112608;28;19990;-54
2021/05/30 00:35:52;;;;;;;;;;;;;;;21.85;38.67;99526.66;5096152;28;20406;-52
2021/05/30 00:38:18;;;;;;;;;;;;;;;21.64;39.25;99521.38;5092401;28;20006;-53
2021/05/30 00:40:43;;;;;;;;;;;;;;;21.52;37.88;99526.34;5092901;28;19951;-50
2021/05/30 00:43:08;;;;;;;;;;;;;;;21.45;38.41;99526.66;5093126;28;20348;-51
2021/05/30 00:45:34;;;;;;;;;;;;;;;21.20;38.58;99529.50;5093028;28;20068;-52
2021/05/30 00:47:59;;;;;;;;;;;;;;;21.43;38.72;99533.41;5092956;28;19996;-52
2021/05/30 00:50:24;;;;;;;;;;;;;;;21.50;39.12;99533.94;5093104;28;19947;-52
2021/05/30 00:52:49;;;;;;;;;;;;;;;21.53;38.17;99536.06;5093258;28;19912;-50
2021/05/30 00:55:15;;;;;;;;;;;;;;;21.54;38.68;99540.41;5091737;28;19912;-52
2021/05/30 00:57:40;;;;;;;;;;;;;;;21.37;40.27;99537.25;5091540;28;20605;-52
2021/05/30 01:00:08;;;;;;;;;;;;;;;21.71;38.00;99525.69;5092888;28;19920;-51
2021/05/30 01:02:34;;;;;;;;;;;;;;;21.73;37.64;99526.22;5093098;28;19999;-51
2021/05/30 01:04:59;;;;;;;;;;;;;;;21.57;38.33;99531.75;5093051;28;20073;-49
2021/05/30 01:07:24;;;;;;;;;;;;;;;21.59;38.21;99524.16;5092533;28;19973;-49
2021/05/30 01:09:51;;;;;;;;;;;;;;;21.02;38.34;99520.94;5092993;28;19912;-48
2021/05/30 01:12:16;;;;;;;;;;;;;;;21.15;39.83;99527.63;5092922;28;19916;-37
2021/05/30 01:14:42;;;;;;;;;;;;;;;21.50;38.84;99527.72;5091321;28;20278;-37
2021/05/30 01:17:08;;;;;;;;;;;;;;;21.41;40.31;99528.28;5092694;28;19969;-38
2021/05/30 01:19:33;;;;;;;;;;;;;;;21.21;39.13;99528.38;5091186;28;19916;-38
2021/05/30 01:21:59;;;;;;;;;;;;;;;21.23;38.71;99531.66;5092640;28;20013;-37
2021/05/30 01:24:24;;;;;;;;;;;;;;;21.24;39.69;99525.13;5092236;28;19927;-37
2021/05/30 01:26:50;;;;;;;;;;;;;;;21.18;38.32;99527.06;5091017;28;19935;-37
2021/05/30 01:29:15;;;;;;;;;;;;;;;20.80;41.40;99534.00;5091290;28;19995;-37
2021/05/30 01:31:40;;;;;;;;;;;;;;;21.01;39.13;99532.03;5092562;28;19969;-37
2021/05/30 01:34:05;;;;;;;;;;;;;;;20.97;39.93;99531.75;5091495;28;19951;-37
2021/05/30 01:36:31;;;;;;;;;;;;;;;21.02;39.77;99530.94;5092641;28;19912;-37
2021/05/30 01:38:56;;;;;;;;;;;;;;;20.87;38.93;99481.25;5092533;28;20600;-37
2021/05/30 01:41:21;;;;;;;;;;;;;;;21.03;39.91;99529.84;5092518;28;19958;-37
2021/05/30 01:43:46;;;;;;;;;;;;;;;21.09;39.86;99532.25;5091775;28;20324;-37
2021/05/30 01:46:12;;;;;;;;;;;;;;;20.87;39.63;99527.22;5092295;28;19927;-37
2021/05/30 01:48:37;;;;;;;;;;;;;;;21.01;39.12;99530.13;5092074;28;20331;-38
2021/05/30 01:51:02;;;;;;;;;;;;;;;21.18;38.98;99540.59;5092358;28;19912;-38
2021/05/30 01:53:36;;;;;;;;;;;;;;;21.14;38.63;99534.13;5092143;28;20091;-38
2021/05/30 01:58:26;;;;;;;;;;;;;;;20.95;40.50;99533.94;5092170;28;19951;-38
2021/05/30 02:00:52;;;;;;;;;;;;;;;21.12;39.90;99532.78;5091890;28;20255;-38
2021/05/30 02:03:17;;;;;;;;;;;;;;;20.38;40.25;99524.38;5092220;28;19912;-39
2021/05/30 02:05:45;;;;;;;;;;;;;;;20.61;40.78;99533.78;5092296;28;20380;-38
2021/05/30 02:08:10;;;;;;;;;;;;;;;20.73;40.74;99530.78;5091469;28;19969;-38
2021/05/30 02:10:35;;;;;;;;;;;;;;;20.59;41.14;99531.34;5090315;28;19912;-38
2021/05/30 02:13:00;;;;;;;;;;;;;;;20.86;41.87;99532.91;5090150;28;20042;-38
2021/05/30 02:15:26;;;;;;;;;;;;;;;21.02;41.22;99523.63;5089942;28;19981;-38
2021/05/30 02:17:51;;;;;;;;;;;;;;;21.01;40.25;99521.19;5091462;28;20372;-38
2021/05/30 02:20:17;;;;;;;;;;;;;;;21.00;39.43;99527.69;5091542;28;19916;-38
2021/05/30 02:22:42;;;;;;;;;;;;;;;20.81;42.22;99520.22;5099503;28;19939;-38
2021/05/30 02:25:11;;;;;;;;;;;;;;;20.70;40.54;99532.16;5111822;28;19926;-38
2021/05/30 02:27:36;;;;;;;;;;;;;;;20.52;40.42;99522.69;5111738;28;20381;-38
2021/05/30 02:30:02;;;;;;;;;;;;;;;20.11;42.13;99518.19;5111943;28;19918;-38
2021/05/30 02:32:27;;;;;;;;;;;;;;;20.24;42.06;99524.13;5111791;28;19911;-38
2021/05/30 02:34:52;;;;;;;;;;;;;;;20.04;42.51;99517.66;5103904;28;19916;-38
2021/05/30 02:37:18;;;;;;;;;;;;;;;20.26;40.87;99519.25;5091106;28;20259;-38
2021/05/30 02:39:45;;;;;;;;;;;;;;;20.06;41.52;99517.38;5089653;28;19947;-37
2021/05/30 02:42:10;;;;;;;;;;;;;;;20.01;41.88;99528.19;5091091;28;19935;-38
2021/05/30 02:44:35;;;;;;;;;;;;;;;20.29;40.89;99522.19;5091018;28;19944;-38
2021/05/30 02:47:01;;;;;;;;;;;;;;;20.24;40.67;99522.22;5091064;28;19919;-38
2021/05/30 02:49:26;;;;;;;;;;;;;;;19.85;42.16;99528.19;5091142;28;19919;-37
2021/05/30 02:51:52;;;;;;;;;;;;;;;19.51;43.02;99525.16;5090998;28;19919;-38
2021/05/30 02:54:17;;;;;;;;;;;;;;;19.70;43.10;99526.28;5090020;28;20300;-37
2021/05/30 02:56:42;;;;;;;;;;;;;;;19.77;41.88;99531.44;5089412;28;19916;-38
2021/05/30 02:59:07;;;;;;;;;;;;;;;19.69;41.69;99530.03;5090768;28;19913;-38
2021/05/30 03:01:33;;;;;;;;;;;;;;;19.65;42.38;99533.56;5090804;28;19912;-38
2021/05/30 03:03:58;;;;;;;;;;;;;;;19.60;42.56;99536.25;5091506;28;20279;-37
2021/05/30 03:06:24;;;;;;;;;;;;;;;19.58;42.64;99541.91;5090910;28;19923;-38
2021/05/30 03:08:53;;;;;;;;;;;;;;;19.49;42.95;99540.81;5090783;28;19919;-38
2021/05/30 03:11:18;;;;;;;;;;;;;;;20.06;41.64;99537.09;5090398;28;19912;-38
2021/05/30 03:13:44;;;;;;;;;;;;;;;20.49;40.49;99536.78;5090490;28;19916;-38
2021/05/30 03:16:09;;;;;;;;;;;;;;;20.68;40.77;99539.72;5090125;28;19949;-39
2021/05/30 03:18:34;;;;;;;;;;;;;;;20.66;40.44;99537.28;5090353;28;19916;-38
2021/05/30 03:20:59;;;;;;;;;;;;;;;19.73;42.16;99550.06;5090049;28;20412;-39
2021/05/30 03:23:25;;;;;;;;;;;;;;;19.70;43.52;99552.44;5090300;28;19920;-38
2021/05/30 03:25:50;;;;;;;;;;;;;;;19.90;41.95;99557.91;5090264;28;20469;-38
2021/05/30 03:28:15;;;;;;;;;;;;;;;19.72;43.01;99547.63;5090025;28;19919;-38
2021/05/30 03:30:40;;;;;;;;;;;;;;;20.01;42.23;99547.91;5089874;28;19984;-38
2021/05/30 03:33:06;;;;;;;;;;;;;;;19.92;42.16;99549.53;5090416;28;19941;-40
2021/05/30 03:35:31;;;;;;;;;;;;;;;20.33;42.21;99541.38;5090478;28;20364;-38
2021/05/30 03:37:58;;;;;;;;;;;;;;;20.33;42.41;99543.28;5089742;28;20008;-38
2021/05/30 03:40:32;;;;;;;;;;;;;;;20.56;41.36;99539.19;5089915;28;19920;-38
2021/05/30 03:42:57;;;;;;;;;;;;;;;20.55;40.64;99537.56;5089826;28;19919;-38
2021/05/30 03:45:23;;;;;;;;;;;;;;;20.20;41.69;99540.06;5089886;28;19916;-38
2021/05/30 03:47:48;;;;;;;;;;;;;;;20.66;41.99;99536.50;5090111;28;19912;-37
2021/05/30 03:50:13;;;;;;;;;;;;;;;20.93;41.16;99530.72;5088632;28;19912;-38
2021/05/30 03:52:39;;;;;;;;;;;;;;;21.27;39.90;99536.22;5090217;28;19912;-37
2021/05/30 03:55:04;;;;;;;;;;;;;;;21.53;39.61;99530.66;5089888;28;19916;-38
2021/05/30 03:57:31;;;;;;;;;;;;;;;21.80;39.49;99534.81;5090027;28;19935;-37
2021/05/30 03:59:57;;;;;;;;;;;;;;;22.20;40.07;99535.53;5089947;28;19912;-37
2021/05/30 04:02:22;;;;;;;;;;;;;;;22.53;37.66;99533.91;5090168;28;20002;-37
2021/05/30 04:04:48;;;;;;;;;;;;;;;23.08;38.25;99535.47;5090326;28;20031;-37
2021/05/30 04:07:13;;;;;;;;;;;;;;;23.63;36.66;99530.34;5093456;28;19913;-37
2021/05/30 04:09:38;;;;;;;;;;;;;;;24.04;35.88;99524.25;5093606;28;19916;-51
2021/05/30 04:12:04;;;;;;;;;;;;;;;24.49;36.14;99521.81;5093553;28;19912;-51
2021/05/30 04:14:29;;;;;;;;;;;;;;;24.15;35.15;99525.69;5093419;28;20061;-51
2021/05/30 04:16:54;;;;;;;;;;;;;;;24.04;35.79;99523.44;5093584;28;19938;-51
2021/05/30 04:19:20;;;;;;;;;;;;;;;24.19;35.19;99521.25;5093550;28;20363;-51
2021/05/30 04:21:45;;;;;;;;;;;;;;;24.73;34.53;99518.09;5093560;28;19927;-53
2021/05/30 04:24:10;;;;;;;;;;;;;;;24.34;34.43;99516.66;5093151;28;19932;-49
2021/05/30 04:26:35;;;;;;;;;;;;;;;24.06;35.80;99510.38;5092829;28;19942;-53
2021/05/30 04:29:01;;;;;;;;;;;;;;;24.24;34.77;99514.94;5092905;28;20001;-51
2021/05/30 04:31:26;;;;;;;;;;;;;;;24.77;33.75;99510.97;5092691;28;19919;-51
2021/05/30 04:33:51;;;;;;;;;;;;;;;24.90;33.50;99517.47;5092573;28;19916;-52
2021/05/30 04:36:17;;;;;;;;;;;;;;;25.36;33.44;99517.31;5092042;28;19999;-52
2021/05/30 04:38:42;;;;;;;;;;;;;;;25.86;32.17;99512.88;5092712;28;19935;-50
2021/05/30 04:41:07;;;;;;;;;;;;;;;25.90;31.39;99511.16;5092360;28;19912;-53
2021/05/30 04:43:32;;;;;;;;;;;;;;;25.89;32.14;99514.97;5092597;28;19939;-51
2021/05/30 04:45:58;;;;;;;;;;;;;;;26.28;31.13;99514.25;5092957;28;19920;-51
2021/05/30 04:48:23;;;;;;;;;;;;;;;26.22;31.42;99515.53;5093034;28;19912;-51
2021/05/30 04:51:09;;;;;;;;;;;;;;;26.11;31.37;99517.69;5092980;28;19944;-52
2021/05/30 04:53:37;;;;;;;;;;;;;;;26.07;31.50;99521.38;5092909;28;19919;-53
2021/05/30 04:56:03;;;;;;;;;;;;;;;26.70;31.08;99519.44;5092530;28;19912;-53
2021/05/30 04:58:28;;;;;;;;;;;;;;;25.83;31.80;99522.47;5092169;28;19912;-52
2021/05/30 05:00:54;;;;;;;;;;;;;;;25.38;31.91;99518.91;5092181;28;19965;-51
2021/05/30 05:03:19;;;;;;;;;;;;;;;25.37;32.66;99515.41;5092637;28;19912;-52
2021/05/30 05:05:44;;;;;;;;;;;;;;;26.30;31.07;99513.94;5092631;28;19920;-51
2021/05/30 05:08:10;;;;;;;;;;;;;;;26.85;30.75;99516.25;5091932;28;19995;-52
2021/05/30 05:10:35;;;;;;;;;;;;;;;27.03;30.91;99522.53;5091777;28;19916;-49
2021/05/30 05:13:01;;;;;;;;;;;;;;;27.45;29.77;99527.59;5091974;28;19912;-52
2021/05/30 05:15:26;;;;;;;;;;;;;;;27.67;29.42;99529.38;5091848;28;20052;-50
2021/05/30 05:17:51;;;;;;;;;;;;;;;27.61;32.73;99527.94;5079400;28;19917;-52
2021/05/30 05:20:18;;;;;;;;;;;;;;;27.11;30.26;99527.25;5077877;28;20320;-51
2021/05/30 05:22:44;;;;;;;;;;;;;;;27.56;29.65;99525.34;5096544;28;20374;-53
2021/05/30 05:25:09;;;;;;;;;;;;;;;26.72;30.90;99517.97;5098740;28;19954;-37
2021/05/30 05:27:34;;;;;;;;;;;;;;;26.08;32.06;99525.69;5091595;28;19920;-38
2021/05/30 05:30:00;;;;;;;;;;;;;;;25.98;31.87;99531.41;5091800;28;19916;-38
2021/05/30 05:32:25;;;;;;;;;;;;;;;25.04;33.33;99523.72;5092028;28;20651;-39
2021/05/30 05:34:50;;;;;;;;;;;;;;;25.73;33.16;99528.19;5092282;28;19912;-38
2021/05/30 05:37:16;;;;;;;;;;;;;;;25.21;32.50;99531.25;5082610;28;19997;-37
2021/05/30 05:39:41;;;;;;;;;;;;;;;25.56;32.85;99526.13;5091581;28;19939;-38
2021/05/30 05:42:06;;;;;;;;;;;;;;;25.73;32.36;99533.63;5091488;28;19916;-38
2021/05/30 05:44:32;;;;;;;;;;;;;;;26.08;31.95;99529.25;5091449;28;19916;-38
2021/05/30 05:46:57;;;;;;;;;;;;;;;26.63;31.19;99530.00;5091450;28;19912;-38
2021/05/30 05:49:22;;;;;;;;;;;;;;;26.82;32.54;99529.72;5091382;28;20476;-38
2021/05/30 05:51:47;;;;;;;;;;;;;;;26.28;31.74;99529.84;5091172;28;19912;-38
2021/05/30 05:54:13;;;;;;;;;;;;;;;26.26;31.81;99532.88;5091256;28;20020;-37
2021/05/30 05:56:38;;;;;;;;;;;;;;;26.30;32.03;99533.84;5091469;28;19912;-38
2021/05/30 05:59:03;;;;;;;;;;;;;;;27.63;30.20;99531.16;5090912;28;20021;-38
2021/05/30 06:01:29;;;;;;;;;;;;;;;28.00;30.05;99537.84;5091170;28;20323;-38
2021/05/30 06:03:54;;;;;;;;;;;;;;;27.56;29.56;99525.34;5091699;28;19919;-38
2021/05/30 06:06:20;;;;;;;;;;;;;;;27.39;29.95;99540.63;5091529;28;19924;-38
2021/05/30 06:08:45;;;;;;;;;;;;;;;27.34;30.08;99537.22;5091211;28;19920;-38
2021/05/30 06:11:10;;;;;;;;;;;;;;;27.79;29.97;99536.91;5091184;28;19912;-38
2021/05/30 06:13:36;;;;;;;;;;;;;;;27.65;29.79;99535.16;5091485;28;20036;-37
2021/05/30 06:16:05;;;;;;;;;;;;;;;28.61;29.27;99543.16;5090959;28;19925;-38
2021/05/30 06:18:30;;;;;;;;;;;;;;;27.77;30.24;99539.97;5091072;28;20056;-38
2021/05/30 06:20:56;;;;;;;;;;;;;;;28.80;29.08;99537.28;5090656;28;20291;-38
2021/05/30 06:23:21;;;;;;;;;;;;;;;29.46;28.82;99537.84;5104285;28;20410;-36
2021/05/30 06:25:46;;;;;;;;;;;;;;;29.46;29.29;99538.63;5101560;28;20065;-39
2021/05/30 06:28:11;;;;;;;;;;;;;;;29.65;26.53;99534.63;5090679;28;20298;-39
2021/05/30 06:30:38;;;;;;;;;;;;;;;29.33;27.29;99526.00;5090365;28;20365;-39
2021/05/30 06:33:04;;;;;;;;;;;;;;;30.17;27.06;99534.13;5090567;28;19919;-38
2021/05/30 06:35:31;;;;;;;;;;;;;;;30.63;26.66;99525.84;5090334;28;19912;-38
2021/05/30 06:37:56;;;;;;;;;;;;;;;29.74;28.18;99529.88;5089932;28;19916;-38
2021/05/30 06:40:21;;;;;;;;;;;;;;;28.99;27.12;99527.81;5088372;28;19913;-37
2021/05/30 06:42:47;;;;;;;;;;;;;;;28.34;28.67;99533.44;5088605;28;19999;-39
2021/05/30 06:45:12;;;;;;;;;;;;;;;28.38;30.05;99531.63;5090424;28;19939;-37
2021/05/30 06:47:38;;;;;;;;;;;;;;;28.69;28.77;99527.81;5090673;28;19939;-38
2021/05/30 06:50:03;;;;;;;;;;;;;;;29.26;27.85;99520.25;5090224;28;19938;-38
2021/05/30 06:52:28;;;;;;;;;;;;;;;29.78;28.56;99525.34;5090391;28;19912;-39
2021/05/30 06:54:54;;;;;;;;;;;;;;;29.76;29.90;99524.88;5090469;28;20308;-37
2021/05/30 06:57:19;;;;;;;;;;;;;;;28.96;27.07;99539.44;5090181;28;20014;-38
2021/05/30 06:59:47;;;;;;;;;;;;;;;28.95;27.91;99546.06;5090050;28;20300;-38
2021/05/30 07:02:12;;;;;;;;;;;;;;;29.12;27.55;99536.94;5090185;28;19919;-38
2021/05/30 07:04:39;;;;;;;;;;;;;;;28.55;27.99;99544.47;5090222;28;19916;-38
2021/05/30 07:07:04;;;;;;;;;;;;;;;29.28;27.12;99537.97;5090033;28;20034;-39
2021/05/30 07:09:29;;;;;;;;;;;;;;;29.13;27.48;99538.56;5088949;28;19958;-39
2021/05/30 07:11:54;;;;;;;;;;;;;;;30.31;28.27;99540.09;5087610;28;19920;-39
2021/05/30 07:14:20;;;;;;;;;;;;;;;30.65;27.00;99540.03;5086753;28;19956;-39
2021/05/30 07:16:45;;;;;;;;;;;;;;;29.96;27.08;99542.41;5087689;28;20041;-39
2021/05/30 07:19:10;;;;;;;;;;;;;;;29.38;28.18;99543.06;5088990;28;19912;-38
2021/05/30 07:21:36;;;;;;;;;;;;;;;29.93;27.20;99540.31;5088770;28;19993;-38
2021/05/30 07:24:01;;;;;;;;;;;;;;;30.26;27.66;99545.78;5094090;28;20008;-37
2021/05/30 07:26:26;;;;;;;;;;;;;;;30.40;28.51;99549.03;5089611;28;19923;-38
2021/05/30 07:28:52;;;;;;;;;;;;;;;31.18;28.93;99544.44;5089848;28;19916;-39
2021/05/30 07:31:18;;;;;;;;;;;;;;;32.52;25.25;99540.69;5088695;28;20368;-39
2021/05/30 07:33:43;;;;;;;;;;;;;;;32.55;25.14;99539.94;5094359;28;19911;-38
2021/05/30 07:36:08;;;;;;;;;;;;;;;32.23;25.86;99533.66;5090773;28;19912;-38
2021/05/30 07:38:34;;;;;;;;;;;;;;;31.16;27.12;99533.00;5089703;28;19934;-38
2021/05/30 07:40:59;;;;;;;;;;;;;;;31.30;27.22;99529.09;5089022;28;19916;-39
2021/05/30 07:43:24;;;;;;;;;;;;;;;31.60;27.37;99526.03;5089431;28;20033;-39
2021/05/30 07:45:50;;;;;;;;;;;;;;;31.20;27.72;99522.13;5089544;28;20304;-39
2021/05/30 07:48:15;;;;;;;;;;;;;;;31.73;27.62;99522.09;5089428;28;19964;-38
2021/05/30 07:50:40;;;;;;;;;;;;;;;31.76;25.40;99518.66;5089478;28;19981;-37
2021/05/30 07:53:06;;;;;;;;;;;;;;;31.80;25.09;99519.53;5089594;28;19993;-38
2021/05/30 07:55:31;;;;;;;;;;;;;;;32.15;25.48;99521.66;5089434;28;20515;-38
2021/05/30 07:57:56;;;;;;;;;;;;;;;32.89;24.64;99524.63;5089500;28;19912;-38
2021/05/30 08:00:22;;;;;;;;;;;;;;;33.01;24.42;99525.69;5089542;28;20511;-38
2021/05/30 08:02:47;;;;;;;;;;;;;;;33.43;23.67;99514.78;5088600;28;19913;-38
2021/05/30 08:05:16;;;;;;;;;;;;;;;32.50;24.46;99526.44;5088584;28;19935;-39
2021/05/30 08:07:41;;;;;;;;;;;;;;;31.88;25.12;99523.28;5089334;28;19916;-38
2021/05/30 08:10:07;;;;;;;;;;;;;;;31.84;24.85;99514.94;5088932;28;19912;-39
2021/05/30 08:12:32;;;;;;;;;;;;;;;32.40;24.50;99521.47;5089408;28;20014;-38
2021/05/30 08:14:58;;;;;;;;;;;;;;;31.70;24.72;99526.34;5089415;28;20316;-48
2021/05/30 08:17:23;;;;;;;;;;;;;;;31.83;24.94;99498.78;5089312;28;19919;-48
2021/05/30 08:19:49;;;;;;;;;;;;;;;31.42;24.95;99522.78;5088810;28;20372;-49
2021/05/30 08:22:14;;;;;;;;;;;;;;;32.03;24.35;99519.78;5093566;28;20365;-52
2021/05/30 08:24:41;;;;;;;;;;;;;;;32.56;24.13;99533.28;5109440;28;19929;-51
2021/05/30 08:27:07;;;;;;;;;;;;;;;31.69;25.16;99524.75;5109764;28;19934;-51
2021/05/30 08:29:32;;;;;;;;;;;;;;;32.37;24.63;99530.44;5103936;28;20380;-50
2021/05/30 08:31:59;;;;;;;;;;;;;;;32.46;24.28;99526.38;5088987;28;20257;-50
2021/05/30 08:34:25;;;;;;;;;;;;;;;32.21;24.75;99516.69;5089199;28;19912;-51
2021/05/30 08:36:50;;;;;;;;;;;;;;;31.36;26.12;99523.00;5089348;28;19998;-51
2021/05/30 08:39:16;;;;;;;;;;;;;;;32.90;24.49;99523.50;5089292;28;20582;-53
2021/05/30 08:41:41;;;;;;;;;;;;;;;32.32;25.39;99515.00;5089454;28;19919;-51
2021/05/30 08:44:06;;;;;;;;;;;;;;;32.00;25.87;99516.91;5089523;28;19915;-50
2021/05/30 08:46:32;;;;;;;;;;;;;;;33.09;24.57;99521.91;5094408;28;20340;-52
2021/05/30 08:48:57;;;;;;;;;;;;;;;33.08;24.12;99523.88;5094522;28;20033;-48
2021/05/30 08:51:23;;;;;;;;;;;;;;;33.54;23.48;99516.97;5088414;28;20312;-51
2021/05/30 08:53:48;;;;;;;;;;;;;;;32.89;23.72;99521.88;5088564;28;19945;-49
2021/05/30 08:56:16;;;;;;;;;;;;;;;33.03;23.82;99517.84;5080124;28;19917;-51
2021/05/30 08:58:42;;;;;;;;;;;;;;;32.80;24.00;99520.50;5072943;28;19912;-50
2021/05/30 09:01:14;;;;;;;;;;;;;;;32.96;23.52;99514.94;5072857;28;20003;-50
2021/05/30 09:03:49;;;;;;;;;;;;;;;32.82;23.66;99524.47;5071404;28;19919;-51
2021/05/30 09:06:15;;;;;;;;;;;;;;;33.16;24.04;99522.09;5072901;28;20343;-50
2021/05/30 09:08:41;;;;;;;;;;;;;;;32.83;23.98;99517.03;5073107;28;19931;-50
2021/05/30 09:11:08;;;;;;;;;;;;;;;33.32;23.62;99519.31;5091539;28;19942;-50
2021/05/30 09:13:38;;;;;;;;;;;;;;;33.43;23.53;99509.28;5093247;28;20033;-51
2021/05/30 09:18:35;;;;;;;;;;;;;;;33.77;23.17;99519.81;5091475;28;19951;-52
2021/05/30 09:21:04;;;;;;;;;;;;;;;32.89;23.66;99526.59;5093048;28;19916;-50
2021/05/30 09:23:39;;;;;;;;;;;;;;;32.12;23.49;99516.84;5108199;28;19912;-51
2021/05/30 09:26:10;;;;;;;;;;;;;;;32.47;22.82;99519.69;5113154;28;19923;-48
2021/05/30 09:28:36;;;;;;;;;;;;;;;32.39;24.15;99517.94;5098633;28;19920;-49
2021/05/30 09:31:02;;;;;;;;;;;;;;;32.01;24.49;99518.53;5092789;28;19916;-49
2021/05/30 09:33:30;;;;;;;;;;;;;;;33.23;22.96;99513.22;5092770;28;19912;-51
2021/05/30 09:35:57;;;;;;;;;;;;;;;33.30;23.23;99516.09;5092511;28;19916;-51
2021/05/30 09:38:27;;;;;;;;;;;;;;;33.96;22.40;99507.94;5091792;28;19916;-51
2021/05/30 09:40:53;;;;;;;;;;;;;;;34.10;22.11;99510.97;5093983;28;20010;-49
2021/05/30 09:43:18;;;;;;;;;;;;;;;33.44;21.75;99512.84;5092985;28;19923;-49
2021/05/30 09:46:02;;;;;;;;;;;;;;;34.00;21.43;99514.31;5094323;28;19920;-51
2021/05/30 09:48:27;;;;;;;;;;;;;;;34.13;21.83;99514.94;5098648;28;19955;-52
2021/05/30 09:51:06;;;;;;;;;;;;;;;33.40;21.90;99506.47;5100811;28;19959;-51
2021/05/30 09:53:32;;;;;;;;;;;;;;;33.83;21.67;99501.78;5094025;28;19966;-52
2021/05/30 09:55:57;;;;;;;;;;;;;;;33.88;21.39;99501.50;5089887;28;20002;-51
2021/05/30 09:58:24;;;;;;;;;;;;;;;33.74;22.10;99499.28;5092055;28;20446;-51
2021/05/30 10:00:52;;;;;;;;;;;;;;;34.50;21.96;99501.38;5091433;28;19913;-53
2021/05/30 10:03:18;;;;;;;;;;;;;;;34.59;21.27;99493.63;5110043;28;19964;-51
2021/05/30 10:05:43;;;;;;;;;;;;;;;34.15;22.55;99504.31;5109252;28;19920;-50
2021/05/30 10:08:08;;;;;;;;;;;;;;;34.07;22.61;99489.59;5095091;28;19916;-50
2021/05/30 10:10:34;;;;;;;;;;;;;;;34.41;21.45;99492.56;5090783;28;19912;-51
2021/05/30 10:13:00;;;;;;;;;;;;;;;33.34;22.23;99500.44;5092263;28;19916;-50
2021/05/30 10:15:25;;;;;;;;;;;;;;;33.21;22.60;99499.78;5091546;28;19942;-51
2021/05/30 10:17:51;;;;;;;;;;;;;;;33.01;22.79;99498.91;5091764;28;20006;-51
2021/05/30 10:20:19;;;;;;;;;;;;;;;33.38;22.09;99495.78;5092142;28;19916;-51
2021/05/30 10:22:44;;;;;;;;;;;;;;;32.78;22.74;99498.81;5099234;28;20406;-52
2021/05/30 10:25:10;;;;;;;;;;;;;;;33.17;22.53;99496.16;5110820;28;19916;-51
2021/05/30 10:27:37;;;;;;;;;;;;;;;32.37;23.08;99502.91;5112321;28;19919;-50
2021/05/30 10:30:10;;;;;;;;;;;;;;;32.57;22.22;99498.31;5112114;28;19934;-52
2021/05/30 10:32:35;;;;;;;;;;;;;;;32.15;22.72;99499.63;5111814;28;20004;-50
2021/05/30 10:35:07;;;;;;;;;;;;;;;32.52;22.28;99497.41;5102140;28;19950;-50
2021/05/30 10:37:35;;;;;;;;;;;;;;;32.25;22.80;99499.13;5091165;28;19919;-49
2021/05/30 10:40:06;;;;;;;;;;;;;;;30.94;24.73;99493.13;5096441;28;19999;-50
2021/05/30 10:42:31;;;;;;;;;;;;;;;31.24;24.67;99494.75;5106629;28;19945;-50
2021/05/30 10:45:03;;;;;;;;;;;;;;;29.34;27.52;99491.97;5104622;28;20299;-51
2021/05/30 10:47:42;;;;;;;;;;;;;;;28.11;29.21;99501.97;5090421;28;20060;-51
2021/05/30 10:50:12;;;;;;;;;;;;;;;27.79;30.20;99504.91;5090558;28;19915;-49
2021/05/30 10:52:38;;;;;;;;;;;;;;;27.56;30.71;99507.03;5089050;28;19938;-50
2021/05/30 10:55:27;;;;;;;;;;;;;;;26.98;31.47;99491.88;5090495;28;19912;-51
2021/05/30 10:57:52;;;;;;;;;;;;;;;28.12;29.92;99498.94;5087196;28;20425;-51
2021/05/30 11:00:17;;;;;;;;;;;;;;;28.13;30.71;99500.50;5090286;28;19919;-51
2021/05/30 11:03:05;;;;;;;;;;;;;;;28.73;29.38;99495.94;5087285;28;20026;-49
2021/05/30 11:05:40;;;;;;;;;;;;;;;28.62;29.35;99494.72;5089131;28;19920;-38
2021/05/30 11:08:06;;;;;;;;;;;;;;;27.90;31.34;99497.19;5088997;28;19919;-37
2021/05/30 11:10:32;;;;;;;;;;;;;;;27.73;30.28;99500.75;5090218;28;19941;-38
2021/05/30 11:12:57;;;;;;;;;;;;;;;27.49;30.87;99498.50;5088557;28;19912;-39
2021/05/30 11:15:23;;;;;;;;;;;;;;;27.02;30.60;99492.84;5089288;28;19988;-38
2021/05/30 11:17:52;;;;;;;;;;;;;;;26.86;29.62;99501.47;5089247;28;19911;-37
2021/05/30 11:20:21;;;;;;;;;;;;;;;26.61;29.82;99489.38;5090079;28;19920;-38
2021/05/30 11:22:47;;;;;;;;;;;;;;;26.79;30.56;99495.69;5090316;28;19931;-38
2021/05/30 11:25:14;;;;;;;;;;;;;;;26.86;30.50;99487.81;5090110;28;19916;-38
2021/05/30 11:27:52;;;;;;;;;;;;;;;27.52;29.50;99500.59;5089259;28;19912;-38
2021/05/30 11:30:33;;;;;;;;;;;;;;;27.52;29.36;99497.88;5089888;28;19912;-38
2021/05/30 11:32:58;;;;;;;;;;;;;;;27.65;29.58;99498.84;5096736;28;19912;-38
2021/05/30 11:35:23;;;;;;;;;;;;;;;27.73;29.31;99494.47;5096444;28;19916;-38
2021/05/30 11:37:49;;;;;;;;;;;;;;;28.17;28.92;99487.78;5095830;28;19915;-38
2021/05/30 11:40:18;;;;;;;;;;;;;;;28.00;28.69;99496.06;5091060;28;19912;-39
2021/05/30 11:42:44;;;;;;;;;;;;;;;28.34;28.53;99488.84;5093157;28;19918;-38
2021/05/30 11:45:09;;;;;;;;;;;;;;;27.18;29.03;99485.78;5089023;28;19947;-39
2021/05/30 11:47:35;;;;;;;;;;;;;;;27.52;30.09;99491.63;5088653;28;19947;-38
2021/05/30 11:50:00;;;;;;;;;;;;;;;27.78;29.95;99495.09;5089003;28;20375;-38
2021/05/30 11:52:26;;;;;;;;;;;;;;;28.04;28.89;99488.78;5090399;28;19912;-38
2021/05/30 11:54:53;;;;;;;;;;;;;;;28.27;28.62;99486.63;5090100;28;20422;-38
2021/05/30 11:57:18;;;;;;;;;;;;;;;27.49;29.15;99493.03;5089985;28;19912;-38
2021/05/30 11:59:47;;;;;;;;;;;;;;;26.90;30.03;99488.00;5089971;28;19955;-37
2021/05/30 12:02:31;;;;;;;;;;;;;;;27.30;29.85;99471.50;5088422;28;19952;-38
2021/05/30 12:04:59;;;;;;;;;;;;;;;27.29;31.31;99489.84;5089641;28;19928;-38
2021/05/30 12:07:25;;;;;;;;;;;;;;;27.61;31.42;99492.41;5089565;28;20002;-38
2021/05/30 12:09:55;;;;;;;;;;;;;;;27.63;31.40;99499.16;5089597;28;19916;-38
2021/05/30 12:12:23;;;;;;;;;;;;;;;26.10;34.78;99485.28;5090094;28;19912;-39
2021/05/30 12:14:49;;;;;;;;;;;;;;;25.93;34.49;99486.00;5089816;28;19930;-38
2021/05/30 12:17:14;;;;;;;;;;;;;;;25.81;34.53;99491.19;5090113;28;19991;-38
2021/05/30 12:19:45;;;;;;;;;;;;;;;25.58;34.64;99490.41;5090338;28;20336;-38
2021/05/30 12:22:28;;;;;;;;;;;;;;;25.59;35.16;99492.00;5093928;28;20419;-38
2021/05/30 12:24:53;;;;;;;;;;;;;;;26.40;33.76;99488.31;5109904;28;19916;-38
2021/05/30 12:27:19;;;;;;;;;;;;;;;26.70;33.64;99484.75;5111568;28;20006;-38
2021/05/30 12:29:47;;;;;;;;;;;;;;;27.26;32.26;99487.75;5113957;28;19919;-38
2021/05/30 12:32:13;;;;;;;;;;;;;;;26.99;32.74;99488.03;5113832;28;19958;-38
2021/05/30 12:34:38;;;;;;;;;;;;;;;27.15;32.73;99483.72;5107484;28;20485;-38
2021/05/30 12:37:03;;;;;;;;;;;;;;;26.50;32.38;99480.66;5093626;28;20027;-38
2021/05/30 12:39:29;;;;;;;;;;;;;;;26.33;32.59;99478.69;5093678;28;19912;-38
2021/05/30 12:41:58;;;;;;;;;;;;;;;26.82;32.80;99475.16;5093587;28;20547;-39
2021/05/30 12:44:31;;;;;;;;;;;;;;;27.10;32.03;99464.75;5093329;28;19916;-38
2021/05/30 12:47:01;;;;;;;;;;;;;;;28.07;30.57;99469.00;5093287;28;20202;-38
2021/05/30 12:49:26;;;;;;;;;;;;;;;28.17;30.26;99467.84;5093056;28;19912;-43